sensor_id;sensor_type;location;lat;lon;timestamp;temperature;humidity
31263;DHT22;17892;52.080;9.006;2023-03-14T00:02:06;13.70;99.90
31263;DHT22;17892;52.080;9.006;2023-03-14T00:04:31;13.80;99.90
31263;DHT22;17892;52.080;9.006;2023-03-14T00:06:57;13.80;99.90
31263;DHT22;17892;52.080;9.006;2023-03-14T00:09:23;13.80;99.90
31263;DHT22;17892;52.080;9.006;2023-03-14T00:11:48;13.80;99.90
31263;DHT22;17892;52.080;9.006;2023-03-14T00:14:14;13.80;99.90
31263;DHT22;17892;52.080;9.006;2023-03-14T00:16:42;13.80;99.90
31263;DHT22;17892;52.080;9.006;2023-03-14T00:19:11;13.70;99.90
31263;DHT22;17892;52.080;9.006;2023-03-14T00:21:37;13.70;99.90
31263;DHT22;17892;52.080;9.006;2023-03-14T00:24:03;13.70;99.90
31263;DHT22;17892;52.080;9.006;2023-03-14T00:26:28;13.70;99.90
31263;DHT22;17892;52.080;9.006;2023-03-14T00:28:54;13.80;99.90
31263;DHT22;17892;52.080;9.006;2023-03-14T00:31:20;13.70;99.90
31263;DHT22;17892;52.080;9.006;2023-03-14T00:33:46;13.70;99.90
31263;DHT22;17892;52.080;9.006;2023-03-14T00:36:14;13.80;99.90
31263;DHT22;17892;52.080;9.006;2023-03-14T00:38:41;13.80;99.90
31263;DHT22;17892;52.080;9.006;2023-03-14T00:41:11;13.80;99.90
31263;DHT22;17892;52.080;9.006;2023-03-14T00:43:38;13.80;99.90
31263;DHT22;17892;52.080;9.006;2023-03-14T00:46:05;13.80;99.90
31263;DHT22;17892;52.080;9.006;2023-03-14T00:48:31;13.80;99.90
31263;DHT22;17892;52.080;9.006;2023-03-14T00:50:57;13.80;99.90
31263;DHT22;17892;52.080;9.006;2023-03-14T00:53:23;13.80;99.90
31263;DHT22;17892;52.080;9.006;2023-03-14T00:55:49;13.80;99.90
31263;DHT22;17892;52.080;9.006;2023-03-14T00:58:15;13.80;99.90
31263;DHT22;17892;52.080;9.006;2023-03-14T01:00:42;13.80;99.90
31263;DHT22;17892;52.080;9.006;2023-03-14T01:03:09;13.80;99.90
31263;DHT22;17892;52.080;9.006;2023-03-14T01:05:36;13.80;99.90
31263;DHT22;17892;52.080;9.006;2023-03-14T01:08:04;13.70;99.90
31263;DHT22;17892;52.080;9.006;2023-03-14T01:10:32;13.70;99.90
31263;DHT22;17892;52.080;9.006;2023-03-14T01:12:58;13.70;99.90
31263;DHT22;17892;52.080;9.006;2023-03-14T01:15:24;13.60;99.90
31263;DHT22;17892;52.080;9.006;2023-03-14T01:17:49;13.60;99.90
31263;DHT22;17892;52.080;9.006;2023-03-14T01:20:16;13.60;99.90
31263;DHT22;17892;52.080;9.006;2023-03-14T01:22:42;13.60;99.90
31263;DHT22;17892;52.080;9.006;2023-03-14T01:25:11;13.60;99.90
31263;DHT22;17892;52.080;9.006;2023-03-14T01:27:38;13.60;99.90
31263;DHT22;17892;52.080;9.006;2023-03-14T01:30:05;13.60;99.90
31263;DHT22;17892;52.080;9.006;2023-03-14T01:32:31;13.60;99.90
31263;DHT22;17892;52.080;9.006;2023-03-14T01:34:57;13.60;99.90
31263;DHT22;17892;52.080;9.006;2023-03-14T01:37:22;13.70;99.90
31263;DHT22;17892;52.080;9.006;2023-03-14T01:39:48;13.70;99.90
31263;DHT22;17892;52.080;9.006;2023-03-14T01:42:14;13.70;99.90
31263;DHT22;17892;52.080;9.006;2023-03-14T01:45:00;13.70;99.90
31263;DHT22;17892;52.080;9.006;2023-03-14T01:47:27;13.70;99.90
31263;DHT22;17892;52.080;9.006;2023-03-14T01:50:06;13.70;99.90
31263;DHT22;17892;52.080;9.006;2023-03-14T01:52:40;13.70;99.90
31263;DHT22;17892;52.080;9.006;2023-03-14T01:55:15;13.70;99.90
31263;DHT22;17892;52.080;9.006;2023-03-14T01:57:51;13.70;99.90
31263;DHT22;17892;52.080;9.006;2023-03-14T02:00:21;13.60;99.90
31263;DHT22;17892;52.080;9.006;2023-03-14T02:02:50;13.60;99.90
31263;DHT22;17892;52.080;9.006;2023-03-14T02:05:25;13.60;99.90
31263;DHT22;17892;52.080;9.006;2023-03-14T02:07:54;13.60;99.90
31263;DHT22;17892;52.080;9.006;2023-03-14T02:10:22;13.60;99.90
31263;DHT22;17892;52.080;9.006;2023-03-14T02:12:50;13.70;99.90
31263;DHT22;17892;52.080;9.006;2023-03-14T02:15:18;13.60;99.90
31263;DHT22;17892;52.080;9.006;2023-03-14T02:17:44;13.60;99.90
31263;DHT22;17892;52.080;9.006;2023-03-14T02:20:28;13.60;99.90
31263;DHT22;17892;52.080;9.006;2023-03-14T02:23:12;13.60;99.90
31263;DHT22;17892;52.080;9.006;2023-03-14T02:26:20;13.60;99.90
31263;DHT22;17892;52.080;9.006;2023-03-14T02:28:49;13.50;99.90
31263;DHT22;17892;52.080;9.006;2023-03-14T02:31:16;13.50;99.90
31263;DHT22;17892;52.080;9.006;2023-03-14T02:33:42;13.50;99.90
31263;DHT22;17892;52.080;9.006;2023-03-14T02:36:11;13.50;99.90
31263;DHT22;17892;52.080;9.006;2023-03-14T02:38:45;13.50;99.90
31263;DHT22;17892;52.080;9.006;2023-03-14T02:41:20;13.40;99.90
31263;DHT22;17892;52.080;9.006;2023-03-14T02:43:46;13.40;99.90
31263;DHT22;17892;52.080;9.006;2023-03-14T02:46:14;13.40;99.90
31263;DHT22;17892;52.080;9.006;2023-03-14T02:48:46;13.40;99.90
31263;DHT22;17892;52.080;9.006;2023-03-14T02:51:15;13.40;99.90
31263;DHT22;17892;52.080;9.006;2023-03-14T02:53:41;13.40;99.90
31263;DHT22;17892;52.080;9.006;2023-03-14T02:56:08;13.50;99.90
31263;DHT22;17892;52.080;9.006;2023-03-14T02:58:35;13.50;99.90
31263;DHT22;17892;52.080;9.006;2023-03-14T03:01:01;13.50;99.90
31263;DHT22;17892;52.080;9.006;2023-03-14T03:03:26;13.40;99.90
31263;DHT22;17892;52.080;9.006;2023-03-14T03:05:53;13.30;99.90
31263;DHT22;17892;52.080;9.006;2023-03-14T03:08:21;13.10;99.90
31263;DHT22;17892;52.080;9.006;2023-03-14T03:10:49;12.90;99.90
31263;DHT22;17892;52.080;9.006;2023-03-14T03:13:15;12.70;99.90
31263;DHT22;17892;52.080;9.006;2023-03-14T03:15:41;12.50;99.90
31263;DHT22;17892;52.080;9.006;2023-03-14T03:18:07;12.20;99.90
31263;DHT22;17892;52.080;9.006;2023-03-14T03:20:33;12.00;99.90
31263;DHT22;17892;52.080;9.006;2023-03-14T03:22:59;11.80;99.90
31263;DHT22;17892;52.080;9.006;2023-03-14T03:25:25;11.60;99.90
31263;DHT22;17892;52.080;9.006;2023-03-14T03:27:51;11.50;99.90
31263;DHT22;17892;52.080;9.006;2023-03-14T03:30:17;11.30;99.90
31263;DHT22;17892;52.080;9.006;2023-03-14T03:32:43;11.20;99.90
31263;DHT22;17892;52.080;9.006;2023-03-14T03:35:09;11.10;99.90
31263;DHT22;17892;52.080;9.006;2023-03-14T03:37:35;11.10;99.90
31263;DHT22;17892;52.080;9.006;2023-03-14T03:40:02;11.00;99.90
31263;DHT22;17892;52.080;9.006;2023-03-14T03:42:31;10.90;99.90
31263;DHT22;17892;52.080;9.006;2023-03-14T03:44:57;10.90;99.90
31263;DHT22;17892;52.080;9.006;2023-03-14T03:47:23;10.80;99.90
31263;DHT22;17892;52.080;9.006;2023-03-14T03:49:49;10.80;99.90
31263;DHT22;17892;52.080;9.006;2023-03-14T03:52:16;10.80;99.90
31263;DHT22;17892;52.080;9.006;2023-03-14T03:54:41;10.80;99.90
31263;DHT22;17892;52.080;9.006;2023-03-14T03:57:07;10.80;99.90
31263;DHT22;17892;52.080;9.006;2023-03-14T03:59:33;10.80;99.90
31263;DHT22;17892;52.080;9.006;2023-03-14T04:01:59;10.80;99.90
31263;DHT22;17892;52.080;9.006;2023-03-14T04:04:24;10.80;99.90
31263;DHT22;17892;52.080;9.006;2023-03-14T04:06:50;10.80;99.90
31263;DHT22;17892;52.080;9.006;2023-03-14T04:09:16;10.80;99.90
31263;DHT22;17892;52.080;9.006;2023-03-14T04:11:41;10.70;99.90
31263;DHT22;17892;52.080;9.006;2023-03-14T04:14:07;10.70;99.90
31263;DHT22;17892;52.080;9.006;2023-03-14T04:16:33;10.70;99.90
31263;DHT22;17892;52.080;9.006;2023-03-14T04:19:00;10.70;99.90
31263;DHT22;17892;52.080;9.006;2023-03-14T04:21:26;10.70;99.90
31263;DHT22;17892;52.080;9.006;2023-03-14T04:23:51;10.70;99.90
31263;DHT22;17892;52.080;9.006;2023-03-14T04:26:17;10.60;99.90
31263;DHT22;17892;52.080;9.006;2023-03-14T04:28:43;10.60;99.90
31263;DHT22;17892;52.080;9.006;2023-03-14T04:31:11;10.60;99.90
31263;DHT22;17892;52.080;9.006;2023-03-14T04:33:39;10.60;99.90
31263;DHT22;17892;52.080;9.006;2023-03-14T04:36:06;10.60;99.90
31263;DHT22;17892;52.080;9.006;2023-03-14T04:38:32;10.60;99.90
31263;DHT22;17892;52.080;9.006;2023-03-14T04:40:59;10.60;99.90
31263;DHT22;17892;52.080;9.006;2023-03-14T04:43:25;10.60;99.90
31263;DHT22;17892;52.080;9.006;2023-03-14T04:45:53;10.60;99.90
31263;DHT22;17892;52.080;9.006;2023-03-14T04:48:19;10.50;99.90
31263;DHT22;17892;52.080;9.006;2023-03-14T04:50:46;10.50;99.90
31263;DHT22;17892;52.080;9.006;2023-03-14T04:53:13;10.50;99.90
31263;DHT22;17892;52.080;9.006;2023-03-14T04:55:39;10.50;99.90
31263;DHT22;17892;52.080;9.006;2023-03-14T04:58:04;10.40;99.90
31263;DHT22;17892;52.080;9.006;2023-03-14T05:00:30;10.40;99.90
31263;DHT22;17892;52.080;9.006;2023-03-14T05:02:56;10.40;99.90
31263;DHT22;17892;52.080;9.006;2023-03-14T05:05:22;10.40;99.90
31263;DHT22;17892;52.080;9.006;2023-03-14T05:07:48;10.40;99.90
31263;DHT22;17892;52.080;9.006;2023-03-14T05:10:14;10.40;99.90
31263;DHT22;17892;52.080;9.006;2023-03-14T05:12:39;10.40;99.90
31263;DHT22;17892;52.080;9.006;2023-03-14T05:15:06;10.50;99.90
31263;DHT22;17892;52.080;9.006;2023-03-14T05:17:35;10.50;99.90
31263;DHT22;17892;52.080;9.006;2023-03-14T05:20:01;10.50;99.90
31263;DHT22;17892;52.080;9.006;2023-03-14T05:22:29;10.50;99.90
31263;DHT22;17892;52.080;9.006;2023-03-14T05:24:55;10.60;99.90
31263;DHT22;17892;52.080;9.006;2023-03-14T05:27:22;10.60;99.90
31263;DHT22;17892;52.080;9.006;2023-03-14T05:29:48;10.60;99.90
31263;DHT22;17892;52.080;9.006;2023-03-14T05:32:14;10.60;99.90
31263;DHT22;17892;52.080;9.006;2023-03-14T05:34:39;10.60;99.90
31263;DHT22;17892;52.080;9.006;2023-03-14T05:37:05;10.70;99.90
31263;DHT22;17892;52.080;9.006;2023-03-14T05:39:31;10.70;99.90
31263;DHT22;17892;52.080;9.006;2023-03-14T05:41:57;10.70;99.90
31263;DHT22;17892;52.080;9.006;2023-03-14T05:44:23;10.70;99.90
31263;DHT22;17892;52.080;9.006;2023-03-14T05:46:49;10.80;99.90
31263;DHT22;17892;52.080;9.006;2023-03-14T05:49:15;10.80;99.90
31263;DHT22;17892;52.080;9.006;2023-03-14T05:51:40;10.80;99.90
31263;DHT22;17892;52.080;9.006;2023-03-14T05:54:06;10.90;99.90
31263;DHT22;17892;52.080;9.006;2023-03-14T05:56:33;10.90;99.90
31263;DHT22;17892;52.080;9.006;2023-03-14T05:58:59;10.90;99.90
31263;DHT22;17892;52.080;9.006;2023-03-14T06:01:27;10.90;99.90
31263;DHT22;17892;52.080;9.006;2023-03-14T06:03:53;10.90;99.90
31263;DHT22;17892;52.080;9.006;2023-03-14T06:06:19;11.00;99.90
31263;DHT22;17892;52.080;9.006;2023-03-14T06:08:44;11.00;99.90
31263;DHT22;17892;52.080;9.006;2023-03-14T06:11:10;11.00;99.90
31263;DHT22;17892;52.080;9.006;2023-03-14T06:13:36;11.00;99.90
31263;DHT22;17892;52.080;9.006;2023-03-14T06:16:02;11.10;99.90
31263;DHT22;17892;52.080;9.006;2023-03-14T06:18:27;11.10;99.90
31263;DHT22;17892;52.080;9.006;2023-03-14T06:20:54;11.10;99.90
31263;DHT22;17892;52.080;9.006;2023-03-14T06:23:21;11.10;99.90
31263;DHT22;17892;52.080;9.006;2023-03-14T06:25:47;11.10;99.90
31263;DHT22;17892;52.080;9.006;2023-03-14T06:28:12;11.10;99.90
31263;DHT22;17892;52.080;9.006;2023-03-14T06:30:38;11.10;99.90
31263;DHT22;17892;52.080;9.006;2023-03-14T06:33:04;11.10;99.90
31263;DHT22;17892;52.080;9.006;2023-03-14T06:35:30;11.10;99.90
31263;DHT22;17892;52.080;9.006;2023-03-14T06:37:55;11.00;99.90
31263;DHT22;17892;52.080;9.006;2023-03-14T06:40:21;11.00;99.90
31263;DHT22;17892;52.080;9.006;2023-03-14T06:42:47;10.90;99.90
31263;DHT22;17892;52.080;9.006;2023-03-14T06:45:14;10.90;99.90
31263;DHT22;17892;52.080;9.006;2023-03-14T06:47:40;10.80;99.90
31263;DHT22;17892;52.080;9.006;2023-03-14T06:50:06;10.80;99.90
31263;DHT22;17892;52.080;9.006;2023-03-14T06:52:33;10.70;99.90
31263;DHT22;17892;52.080;9.006;2023-03-14T06:54:59;10.70;99.90
31263;DHT22;17892;52.080;9.006;2023-03-14T06:57:24;10.60;99.90
31263;DHT22;17892;52.080;9.006;2023-03-14T06:59:50;10.60;99.90
31263;DHT22;17892;52.080;9.006;2023-03-14T07:02:16;10.50;99.90
31263;DHT22;17892;52.080;9.006;2023-03-14T07:04:41;10.40;99.90
31263;DHT22;17892;52.080;9.006;2023-03-14T07:07:07;10.40;99.90
31263;DHT22;17892;52.080;9.006;2023-03-14T07:09:33;10.40;99.90
31263;DHT22;17892;52.080;9.006;2023-03-14T07:11:59;10.30;99.90
31263;DHT22;17892;52.080;9.006;2023-03-14T07:14:26;10.20;99.90
31263;DHT22;17892;52.080;9.006;2023-03-14T07:16:51;10.20;99.90
31263;DHT22;17892;52.080;9.006;2023-03-14T07:19:17;10.10;99.90
31263;DHT22;17892;52.080;9.006;2023-03-14T07:21:43;10.10;99.90
31263;DHT22;17892;52.080;9.006;2023-03-14T07:24:09;10.10;99.90
31263;DHT22;17892;52.080;9.006;2023-03-14T07:26:35;10.10;99.90
31263;DHT22;17892;52.080;9.006;2023-03-14T07:29:01;9.90;99.90
31263;DHT22;17892;52.080;9.006;2023-03-14T07:31:28;10.10;99.90
31263;DHT22;17892;52.080;9.006;2023-03-14T07:33:54;10.10;99.90
31263;DHT22;17892;52.080;9.006;2023-03-14T07:36:20;10.10;99.90
31263;DHT22;17892;52.080;9.006;2023-03-14T07:38:46;10.10;99.90
31263;DHT22;17892;52.080;9.006;2023-03-14T07:41:12;10.10;99.90
31263;DHT22;17892;52.080;9.006;2023-03-14T07:43:38;10.10;99.90
31263;DHT22;17892;52.080;9.006;2023-03-14T07:46:03;10.10;99.90
31263;DHT22;17892;52.080;9.006;2023-03-14T07:48:29;10.10;99.90
31263;DHT22;17892;52.080;9.006;2023-03-14T07:50:56;10.10;99.90
31263;DHT22;17892;52.080;9.006;2023-03-14T07:53:22;10.10;99.90
31263;DHT22;17892;52.080;9.006;2023-03-14T07:55:50;10.10;99.90
31263;DHT22;17892;52.080;9.006;2023-03-14T07:58:17;10.20;99.90
31263;DHT22;17892;52.080;9.006;2023-03-14T08:00:43;10.20;99.90
31263;DHT22;17892;52.080;9.006;2023-03-14T08:03:09;10.20;99.90
31263;DHT22;17892;52.080;9.006;2023-03-14T08:05:36;10.20;99.90
31263;DHT22;17892;52.080;9.006;2023-03-14T08:08:04;10.30;99.90
31263;DHT22;17892;52.080;9.006;2023-03-14T08:10:30;10.30;99.90
31263;DHT22;17892;52.080;9.006;2023-03-14T08:12:57;10.30;99.90
31263;DHT22;17892;52.080;9.006;2023-03-14T08:15:24;10.40;99.90
31263;DHT22;17892;52.080;9.006;2023-03-14T08:17:51;10.40;99.90
31263;DHT22;17892;52.080;9.006;2023-03-14T08:20:17;10.50;99.90
31263;DHT22;17892;52.080;9.006;2023-03-14T08:22:44;10.50;99.90
31263;DHT22;17892;52.080;9.006;2023-03-14T08:25:09;10.60;99.90
31263;DHT22;17892;52.080;9.006;2023-03-14T08:27:36;10.60;99.90
31263;DHT22;17892;52.080;9.006;2023-03-14T08:30:05;10.60;99.90
31263;DHT22;17892;52.080;9.006;2023-03-14T08:32:31;10.70;99.90
31263;DHT22;17892;52.080;9.006;2023-03-14T08:34:57;10.80;99.90
31263;DHT22;17892;52.080;9.006;2023-03-14T08:37:23;10.80;99.90
31263;DHT22;17892;52.080;9.006;2023-03-14T08:39:50;10.80;99.90
31263;DHT22;17892;52.080;9.006;2023-03-14T08:42:17;10.90;99.90
31263;DHT22;17892;52.080;9.006;2023-03-14T08:44:43;11.00;99.90
31263;DHT22;17892;52.080;9.006;2023-03-14T08:47:09;11.00;99.90
31263;DHT22;17892;52.080;9.006;2023-03-14T08:49:35;11.10;99.90
31263;DHT22;17892;52.080;9.006;2023-03-14T08:52:04;11.10;99.90
31263;DHT22;17892;52.080;9.006;2023-03-14T08:54:30;11.20;99.90
31263;DHT22;17892;52.080;9.006;2023-03-14T08:56:56;11.20;99.90
31263;DHT22;17892;52.080;9.006;2023-03-14T08:59:23;11.20;99.90
31263;DHT22;17892;52.080;9.006;2023-03-14T09:01:49;11.20;99.90
31263;DHT22;17892;52.080;9.006;2023-03-14T09:04:15;11.30;99.90
31263;DHT22;17892;52.080;9.006;2023-03-14T09:06:41;11.30;99.90
31263;DHT22;17892;52.080;9.006;2023-03-14T09:09:07;11.30;99.90
31263;DHT22;17892;52.080;9.006;2023-03-14T09:11:33;11.40;99.90
31263;DHT22;17892;52.080;9.006;2023-03-14T09:13:59;11.40;99.90
31263;DHT22;17892;52.080;9.006;2023-03-14T09:16:25;11.50;99.90
31263;DHT22;17892;52.080;9.006;2023-03-14T09:18:51;11.50;99.90
31263;DHT22;17892;52.080;9.006;2023-03-14T09:21:20;11.60;99.90
31263;DHT22;17892;52.080;9.006;2023-03-14T09:23:46;11.60;99.90
31263;DHT22;17892;52.080;9.006;2023-03-14T09:26:13;11.70;99.90
31263;DHT22;17892;52.080;9.006;2023-03-14T09:28:38;11.70;99.90
31263;DHT22;17892;52.080;9.006;2023-03-14T09:31:11;11.70;99.90
31263;DHT22;17892;52.080;9.006;2023-03-14T09:33:38;11.80;99.90
31263;DHT22;17892;52.080;9.006;2023-03-14T09:36:04;11.80;99.90
31263;DHT22;17892;52.080;9.006;2023-03-14T09:38:30;11.80;99.90
31263;DHT22;17892;52.080;9.006;2023-03-14T09:40:59;11.80;99.90
31263;DHT22;17892;52.080;9.006;2023-03-14T09:43:29;11.80;99.90
31263;DHT22;17892;52.080;9.006;2023-03-14T09:45:55;11.80;99.90
31263;DHT22;17892;52.080;9.006;2023-03-14T09:48:29;11.80;99.90
31263;DHT22;17892;52.080;9.006;2023-03-14T09:50:58;11.80;99.90
31263;DHT22;17892;52.080;9.006;2023-03-14T09:53:31;11.80;99.90
31263;DHT22;17892;52.080;9.006;2023-03-14T09:56:02;11.80;99.90
31263;DHT22;17892;52.080;9.006;2023-03-14T09:58:29;11.90;99.90
31263;DHT22;17892;52.080;9.006;2023-03-14T10:00:56;11.90;99.90
31263;DHT22;17892;52.080;9.006;2023-03-14T10:03:33;12.00;99.90
31263;DHT22;17892;52.080;9.006;2023-03-14T10:06:00;12.00;99.90
31263;DHT22;17892;52.080;9.006;2023-03-14T10:08:26;12.00;99.90
31263;DHT22;17892;52.080;9.006;2023-03-14T10:10:52;12.10;99.90
31263;DHT22;17892;52.080;9.006;2023-03-14T10:13:24;12.10;99.90
31263;DHT22;17892;52.080;9.006;2023-03-14T10:15:54;12.20;99.90
31263;DHT22;17892;52.080;9.006;2023-03-14T10:18:22;12.20;99.90
31263;DHT22;17892;52.080;9.006;2023-03-14T10:21:00;12.30;99.90
31263;DHT22;17892;52.080;9.006;2023-03-14T10:23:33;12.30;99.90
31263;DHT22;17892;52.080;9.006;2023-03-14T10:26:16;12.30;99.90
31263;DHT22;17892;52.080;9.006;2023-03-14T10:28:49;12.30;99.90
31263;DHT22;17892;52.080;9.006;2023-03-14T10:31:17;12.30;99.90
31263;DHT22;17892;52.080;9.006;2023-03-14T10:34:00;12.30;99.90
31263;DHT22;17892;52.080;9.006;2023-03-14T10:36:30;12.40;99.90
31263;DHT22;17892;52.080;9.006;2023-03-14T10:39:15;12.40;99.90
31263;DHT22;17892;52.080;9.006;2023-03-14T10:41:54;12.30;99.90
31263;DHT22;17892;52.080;9.006;2023-03-14T10:44:24;12.30;99.90
31263;DHT22;17892;52.080;9.006;2023-03-14T10:47:00;12.30;99.90
31263;DHT22;17892;52.080;9.006;2023-03-14T10:49:46;12.30;99.90
31263;DHT22;17892;52.080;9.006;2023-03-14T10:52:27;12.20;99.90
31263;DHT22;17892;52.080;9.006;2023-03-14T10:55:01;12.20;99.90
31263;DHT22;17892;52.080;9.006;2023-03-14T10:57:29;12.10;99.90
31263;DHT22;17892;52.080;9.006;2023-03-14T10:59:56;12.00;99.90
31263;DHT22;17892;52.080;9.006;2023-03-14T11:07:43;11.70;99.90
31263;DHT22;17892;52.080;9.006;2023-03-14T11:10:32;11.50;99.90
31263;DHT22;17892;52.080;9.006;2023-03-14T11:13:08;11.20;99.90
31263;DHT22;17892;52.080;9.006;2023-03-14T11:16:01;10.90;99.90
31263;DHT22;17892;52.080;9.006;2023-03-14T11:18:53;10.50;99.90
31263;DHT22;17892;52.080;9.006;2023-03-14T11:21:41;10.20;99.90
31263;DHT22;17892;52.080;9.006;2023-03-14T11:27:52;9.60;99.90
31263;DHT22;17892;52.080;9.006;2023-03-14T11:30:35;9.20;99.90
31263;DHT22;17892;52.080;9.006;2023-03-14T11:33:17;9.00;99.90
31263;DHT22;17892;52.080;9.006;2023-03-14T11:35:59;8.80;99.90
31263;DHT22;17892;52.080;9.006;2023-03-14T11:38:47;8.60;99.90
31263;DHT22;17892;52.080;9.006;2023-03-14T11:41:21;8.40;99.90
31263;DHT22;17892;52.080;9.006;2023-03-14T11:43:53;8.20;99.90
31263;DHT22;17892;52.080;9.006;2023-03-14T11:46:34;8.00;99.90
31263;DHT22;17892;52.080;9.006;2023-03-14T11:51:47;7.50;99.90
31263;DHT22;17892;52.080;9.006;2023-03-14T11:54:43;7.30;99.90
31263;DHT22;17892;52.080;9.006;2023-03-14T11:57:13;7.00;99.90
31263;DHT22;17892;52.080;9.006;2023-03-14T12:10:59;6.10;99.90
31263;DHT22;17892;52.080;9.006;2023-03-14T12:13:29;6.00;99.90
31263;DHT22;17892;52.080;9.006;2023-03-14T12:16:03;5.90;99.90
31263;DHT22;17892;52.080;9.006;2023-03-14T12:18:36;5.80;99.90
31263;DHT22;17892;52.080;9.006;2023-03-14T12:21:09;5.70;99.90
31263;DHT22;17892;52.080;9.006;2023-03-14T12:23:48;5.70;99.90
31263;DHT22;17892;52.080;9.006;2023-03-14T12:26:24;5.70;99.90
31263;DHT22;17892;52.080;9.006;2023-03-14T12:40:01;5.80;99.90
31263;DHT22;17892;52.080;9.006;2023-03-14T12:45:34;5.90;99.90
31263;DHT22;17892;52.080;9.006;2023-03-14T12:48:11;5.90;99.90
31263;DHT22;17892;52.080;9.006;2023-03-14T12:51:11;6.00;99.90
31263;DHT22;17892;52.080;9.006;2023-03-14T12:56:22;6.10;99.90
31263;DHT22;17892;52.080;9.006;2023-03-14T13:01:33;6.30;99.90
31263;DHT22;17892;52.080;9.006;2023-03-14T13:04:08;6.40;99.90
31263;DHT22;17892;52.080;9.006;2023-03-14T13:11:55;6.60;99.90
31263;DHT22;17892;52.080;9.006;2023-03-14T13:14:23;6.60;99.90
31263;DHT22;17892;52.080;9.006;2023-03-14T13:16:49;6.60;99.90
31263;DHT22;17892;52.080;9.006;2023-03-14T13:19:26;6.70;99.90
31263;DHT22;17892;52.080;9.006;2023-03-14T13:22:00;6.70;99.90
31263;DHT22;17892;52.080;9.006;2023-03-14T13:24:28;6.70;99.90
31263;DHT22;17892;52.080;9.006;2023-03-14T13:26:56;6.70;99.90
31263;DHT22;17892;52.080;9.006;2023-03-14T13:29:25;6.70;99.90
31263;DHT22;17892;52.080;9.006;2023-03-14T13:31:55;6.80;99.90
31263;DHT22;17892;52.080;9.006;2023-03-14T13:34:29;6.80;99.90
31263;DHT22;17892;52.080;9.006;2023-03-14T13:36:58;6.70;99.90
31263;DHT22;17892;52.080;9.006;2023-03-14T13:39:26;6.70;99.90
31263;DHT22;17892;52.080;9.006;2023-03-14T13:41:58;6.60;99.90
31263;DHT22;17892;52.080;9.006;2023-03-14T13:44:36;6.60;99.90
31263;DHT22;17892;52.080;9.006;2023-03-14T13:47:05;6.70;99.90
31263;DHT22;17892;52.080;9.006;2023-03-14T13:49:43;6.70;99.90
31263;DHT22;17892;52.080;9.006;2023-03-14T13:52:30;6.80;99.90
31263;DHT22;17892;52.080;9.006;2023-03-14T13:55:04;6.80;99.90
31263;DHT22;17892;52.080;9.006;2023-03-14T13:57:44;6.80;99.90
31263;DHT22;17892;52.080;9.006;2023-03-14T14:00:19;6.90;99.90
31263;DHT22;17892;52.080;9.006;2023-03-14T14:02:47;6.80;99.90
31263;DHT22;17892;52.080;9.006;2023-03-14T14:05:13;6.70;99.90
31263;DHT22;17892;52.080;9.006;2023-03-14T14:07:40;6.60;99.90
31263;DHT22;17892;52.080;9.006;2023-03-14T14:10:11;6.50;99.90
31263;DHT22;17892;52.080;9.006;2023-03-14T14:12:43;6.50;99.90
31263;DHT22;17892;52.080;9.006;2023-03-14T14:15:21;6.50;99.90
31263;DHT22;17892;52.080;9.006;2023-03-14T14:17:55;6.50;99.90
31263;DHT22;17892;52.080;9.006;2023-03-14T14:23:01;6.50;99.90
31263;DHT22;17892;52.080;9.006;2023-03-14T14:25:31;6.60;99.90
31263;DHT22;17892;52.080;9.006;2023-03-14T14:27:57;6.60;99.90
31263;DHT22;17892;52.080;9.006;2023-03-14T14:30:32;6.70;99.90
31263;DHT22;17892;52.080;9.006;2023-03-14T14:33:19;6.70;99.90
31263;DHT22;17892;52.080;9.006;2023-03-14T14:35:57;6.70;99.90
31263;DHT22;17892;52.080;9.006;2023-03-14T14:38:25;6.80;99.90
31263;DHT22;17892;52.080;9.006;2023-03-14T14:40:53;6.80;99.90
31263;DHT22;17892;52.080;9.006;2023-03-14T14:43:25;6.80;99.90
31263;DHT22;17892;52.080;9.006;2023-03-14T14:45:54;6.80;99.90
31263;DHT22;17892;52.080;9.006;2023-03-14T14:48:26;6.80;99.90
31263;DHT22;17892;52.080;9.006;2023-03-14T14:51:01;6.80;99.90
31263;DHT22;17892;52.080;9.006;2023-03-14T14:56:27;6.90;99.90
31263;DHT22;17892;52.080;9.006;2023-03-14T14:58:58;6.90;99.90
31263;DHT22;17892;52.080;9.006;2023-03-14T15:01:32;7.00;99.90
31263;DHT22;17892;52.080;9.006;2023-03-14T15:04:13;7.10;99.90
31263;DHT22;17892;52.080;9.006;2023-03-14T15:06:43;7.20;99.90
31263;DHT22;17892;52.080;9.006;2023-03-14T15:09:11;7.30;99.90
31263;DHT22;17892;52.080;9.006;2023-03-14T15:11:37;7.40;99.90
31263;DHT22;17892;52.080;9.006;2023-03-14T15:14:03;7.50;99.90
31263;DHT22;17892;52.080;9.006;2023-03-14T15:16:30;7.50;99.90
31263;DHT22;17892;52.080;9.006;2023-03-14T15:18:58;7.50;99.90
31263;DHT22;17892;52.080;9.006;2023-03-14T15:21:31;7.50;99.90
31263;DHT22;17892;52.080;9.006;2023-03-14T15:23:57;7.50;99.90
31263;DHT22;17892;52.080;9.006;2023-03-14T15:26:25;7.40;99.90
31263;DHT22;17892;52.080;9.006;2023-03-14T15:28:52;7.40;99.90
31263;DHT22;17892;52.080;9.006;2023-03-14T15:31:19;7.30;99.90
31263;DHT22;17892;52.080;9.006;2023-03-14T15:33:47;7.30;99.90
31263;DHT22;17892;52.080;9.006;2023-03-14T15:36:21;7.20;99.90
31263;DHT22;17892;52.080;9.006;2023-03-14T15:38:48;7.20;99.90
31263;DHT22;17892;52.080;9.006;2023-03-14T15:41:15;7.20;99.90
31263;DHT22;17892;52.080;9.006;2023-03-14T15:43:41;7.20;99.90
31263;DHT22;17892;52.080;9.006;2023-03-14T15:46:11;7.10;99.90
31263;DHT22;17892;52.080;9.006;2023-03-14T15:48:37;7.10;99.90
31263;DHT22;17892;52.080;9.006;2023-03-14T15:51:03;7.20;99.90
31263;DHT22;17892;52.080;9.006;2023-03-14T15:53:29;7.10;99.90
31263;DHT22;17892;52.080;9.006;2023-03-14T15:55:54;7.10;99.90
31263;DHT22;17892;52.080;9.006;2023-03-14T15:58:20;7.20;99.90
31263;DHT22;17892;52.080;9.006;2023-03-14T16:00:46;7.20;99.90
31263;DHT22;17892;52.080;9.006;2023-03-14T16:03:13;7.20;99.90
31263;DHT22;17892;52.080;9.006;2023-03-14T16:05:39;7.20;99.90
31263;DHT22;17892;52.080;9.006;2023-03-14T16:08:05;7.20;99.90
31263;DHT22;17892;52.080;9.006;2023-03-14T16:10:32;7.30;99.90
31263;DHT22;17892;52.080;9.006;2023-03-14T16:12:58;7.40;99.90
31263;DHT22;17892;52.080;9.006;2023-03-14T16:15:24;7.50;99.90
31263;DHT22;17892;52.080;9.006;2023-03-14T16:17:55;7.60;99.90
31263;DHT22;17892;52.080;9.006;2023-03-14T16:20:22;7.60;99.90
31263;DHT22;17892;52.080;9.006;2023-03-14T16:22:48;7.70;99.90
31263;DHT22;17892;52.080;9.006;2023-03-14T16:25:14;7.70;99.90
31263;DHT22;17892;52.080;9.006;2023-03-14T16:27:40;7.60;99.90
31263;DHT22;17892;52.080;9.006;2023-03-14T16:30:09;7.60;99.90
31263;DHT22;17892;52.080;9.006;2023-03-14T16:32:36;7.50;99.90
31263;DHT22;17892;52.080;9.006;2023-03-14T16:35:02;7.50;99.90
31263;DHT22;17892;52.080;9.006;2023-03-14T16:37:28;7.40;99.90
31263;DHT22;17892;52.080;9.006;2023-03-14T16:39:54;7.40;99.90